sensor_id;sensor_type;location;lat;lon;timestamp;P1;durP1;ratioP1;P2;durP2;ratioP2
9508;SDS011;4792;50.088;8.122;2023-02-01T00:01:19;10.07;;;7.27;;
9508;SDS011;4792;50.088;8.122;2023-02-01T00:03:47;10.70;;;7.10;;
9508;SDS011;4792;50.088;8.122;2023-02-01T00:06:15;9.50;;;6.77;;
9508;SDS011;4792;50.088;8.122;2023-02-01T00:08:43;7.87;;;6.60;;
9508;SDS011;4792;50.088;8.122;2023-02-01T00:11:11;6.87;;;5.90;;
9508;SDS011;4792;50.088;8.122;2023-02-01T00:13:41;8.33;;;5.17;;
9508;SDS011;4792;50.088;8.122;2023-02-01T00:16:12;7.03;;;5.10;;
9508;SDS011;4792;50.088;8.122;2023-02-01T00:18:42;6.00;;;5.40;;
9508;SDS011;4792;50.088;8.122;2023-02-01T00:21:11;7.70;;;5.30;;
9508;SDS011;4792;50.088;8.122;2023-02-01T00:23:39;7.27;;;5.20;;
9508;SDS011;4792;50.088;8.122;2023-02-01T00:26:11;6.77;;;4.70;;
9508;SDS011;4792;50.088;8.122;2023-02-01T00:28:42;10.33;;;5.60;;
9508;SDS011;4792;50.088;8.122;2023-02-01T00:31:12;6.93;;;5.20;;
9508;SDS011;4792;50.088;8.122;2023-02-01T00:33:41;8.07;;;5.37;;
9508;SDS011;4792;50.088;8.122;2023-02-01T00:36:09;7.90;;;6.20;;
9508;SDS011;4792;50.088;8.122;2023-02-01T00:38:38;9.47;;;6.20;;
9508;SDS011;4792;50.088;8.122;2023-02-01T00:41:07;6.60;;;5.77;;
9508;SDS011;4792;50.088;8.122;2023-02-01T00:43:38;8.33;;;6.93;;
9508;SDS011;4792;50.088;8.122;2023-02-01T00:46:06;8.23;;;6.63;;
9508;SDS011;4792;50.088;8.122;2023-02-01T00:48:37;13.13;;;8.23;;
9508;SDS011;4792;50.088;8.122;2023-02-01T00:51:06;11.60;;;7.53;;
9508;SDS011;4792;50.088;8.122;2023-02-01T00:53:36;9.07;;;7.90;;
9508;SDS011;4792;50.088;8.122;2023-02-01T00:56:05;10.80;;;7.40;;
9508;SDS011;4792;50.088;8.122;2023-02-01T00:58:34;10.47;;;7.93;;
9508;SDS011;4792;50.088;8.122;2023-02-01T01:01:03;12.13;;;8.07;;
9508;SDS011;4792;50.088;8.122;2023-02-01T01:03:34;8.83;;;7.27;;
9508;SDS011;4792;50.088;8.122;2023-02-01T01:06:05;10.57;;;7.33;;
9508;SDS011;4792;50.088;8.122;2023-02-01T01:08:35;11.80;;;7.67;;
9508;SDS011;4792;50.088;8.122;2023-02-01T01:11:05;10.10;;;7.50;;
9508;SDS011;4792;50.088;8.122;2023-02-01T01:13:34;9.07;;;7.17;;
9508;SDS011;4792;50.088;8.122;2023-02-01T01:16:03;11.93;;;7.07;;
9508;SDS011;4792;50.088;8.122;2023-02-01T01:18:33;9.83;;;7.97;;
9508;SDS011;4792;50.088;8.122;2023-02-01T01:21:05;8.60;;;7.30;;
9508;SDS011;4792;50.088;8.122;2023-02-01T01:23:33;9.70;;;7.57;;
9508;SDS011;4792;50.088;8.122;2023-02-01T01:26:04;12.40;;;7.63;;
9508;SDS011;4792;50.088;8.122;2023-02-01T01:28:33;10.67;;;7.87;;
9508;SDS011;4792;50.088;8.122;2023-02-01T01:31:02;10.27;;;7.43;;
9508;SDS011;4792;50.088;8.122;2023-02-01T01:33:35;11.60;;;7.97;;
9508;SDS011;4792;50.088;8.122;2023-02-01T01:36:05;9.27;;;8.07;;
9508;SDS011;4792;50.088;8.122;2023-02-01T01:38:36;12.20;;;7.87;;
9508;SDS011;4792;50.088;8.122;2023-02-01T01:41:05;13.27;;;8.27;;
9508;SDS011;4792;50.088;8.122;2023-02-01T01:43:51;12.77;;;7.43;;
9508;SDS011;4792;50.088;8.122;2023-02-01T01:46:22;10.07;;;7.60;;
9508;SDS011;4792;50.088;8.122;2023-02-01T01:48:55;12.10;;;7.23;;
9508;SDS011;4792;50.088;8.122;2023-02-01T01:51:29;8.50;;;6.53;;
9508;SDS011;4792;50.088;8.122;2023-02-01T01:54:01;8.67;;;5.80;;
9508;SDS011;4792;50.088;8.122;2023-02-01T01:56:32;7.07;;;5.27;;
9508;SDS011;4792;50.088;8.122;2023-02-01T01:59:02;9.17;;;5.30;;
9508;SDS011;4792;50.088;8.122;2023-02-01T02:01:32;8.10;;;5.13;;
9508;SDS011;4792;50.088;8.122;2023-02-01T02:04:00;6.93;;;4.37;;
9508;SDS011;4792;50.088;8.122;2023-02-01T02:06:33;8.00;;;4.27;;
9508;SDS011;4792;50.088;8.122;2023-02-01T02:09:08;7.00;;;4.10;;
9508;SDS011;4792;50.088;8.122;2023-02-01T02:11:36;5.30;;;4.40;;
9508;SDS011;4792;50.088;8.122;2023-02-01T02:14:05;10.53;;;4.67;;
9508;SDS011;4792;50.088;8.122;2023-02-01T02:16:52;6.43;;;4.10;;
9508;SDS011;4792;50.088;8.122;2023-02-01T02:19:41;12.20;;;4.90;;
9508;SDS011;4792;50.088;8.122;2023-02-01T02:22:30;10.00;;;4.07;;
9508;SDS011;4792;50.088;8.122;2023-02-01T02:25:35;10.40;;;4.10;;
9508;SDS011;4792;50.088;8.122;2023-02-01T02:31:32;7.87;;;3.37;;
9508;SDS011;4792;50.088;8.122;2023-02-01T02:34:13;6.53;;;3.50;;
9508;SDS011;4792;50.088;8.122;2023-02-01T02:36:51;6.80;;;3.37;;
9508;SDS011;4792;50.088;8.122;2023-02-01T02:39:32;7.57;;;3.50;;
9508;SDS011;4792;50.088;8.122;2023-02-01T02:42:12;4.23;;;3.20;;
9508;SDS011;4792;50.088;8.122;2023-02-01T02:45:01;5.53;;;3.33;;
9508;SDS011;4792;50.088;8.122;2023-02-01T02:47:54;6.17;;;3.60;;
9508;SDS011;4792;50.088;8.122;2023-02-01T02:50:32;4.07;;;3.40;;
9508;SDS011;4792;50.088;8.122;2023-02-01T02:53:21;5.80;;;3.13;;
9508;SDS011;4792;50.088;8.122;2023-02-01T02:56:13;7.57;;;3.40;;
9508;SDS011;4792;50.088;8.122;2023-02-01T02:59:00;5.90;;;3.60;;
9508;SDS011;4792;50.088;8.122;2023-02-01T03:01:48;5.17;;;3.70;;
9508;SDS011;4792;50.088;8.122;2023-02-01T03:04:34;7.00;;;3.40;;
9508;SDS011;4792;50.088;8.122;2023-02-01T03:07:12;5.17;;;3.10;;
9508;SDS011;4792;50.088;8.122;2023-02-01T03:09:42;5.50;;;3.30;;
9508;SDS011;4792;50.088;8.122;2023-02-01T03:12:14;7.33;;;3.53;;
9508;SDS011;4792;50.088;8.122;2023-02-01T03:15:03;7.57;;;3.87;;
9508;SDS011;4792;50.088;8.122;2023-02-01T03:17:39;7.10;;;3.67;;
9508;SDS011;4792;50.088;8.122;2023-02-01T03:20:10;8.70;;;3.90;;
9508;SDS011;4792;50.088;8.122;2023-02-01T03:22:43;6.27;;;3.50;;
9508;SDS011;4792;50.088;8.122;2023-02-01T03:25:12;8.67;;;4.07;;
9508;SDS011;4792;50.088;8.122;2023-02-01T03:27:46;8.00;;;4.00;;
9508;SDS011;4792;50.088;8.122;2023-02-01T03:30:20;5.67;;;3.57;;
9508;SDS011;4792;50.088;8.122;2023-02-01T03:32:51;5.47;;;3.60;;
9508;SDS011;4792;50.088;8.122;2023-02-01T03:35:28;9.07;;;3.70;;
9508;SDS011;4792;50.088;8.122;2023-02-01T03:38:03;6.40;;;3.43;;
9508;SDS011;4792;50.088;8.122;2023-02-01T03:40:36;7.67;;;3.63;;
9508;SDS011;4792;50.088;8.122;2023-02-01T03:43:06;11.27;;;3.30;;
9508;SDS011;4792;50.088;8.122;2023-02-01T03:45:38;6.40;;;4.00;;
9508;SDS011;4792;50.088;8.122;2023-02-01T03:48:10;4.57;;;2.83;;
9508;SDS011;4792;50.088;8.122;2023-02-01T03:50:43;5.50;;;3.40;;
9508;SDS011;4792;50.088;8.122;2023-02-01T03:53:17;8.23;;;3.80;;
9508;SDS011;4792;50.088;8.122;2023-02-01T03:55:48;7.93;;;3.30;;
9508;SDS011;4792;50.088;8.122;2023-02-01T03:58:19;7.03;;;3.63;;
9508;SDS011;4792;50.088;8.122;2023-02-01T04:00:50;8.90;;;4.37;;
9508;SDS011;4792;50.088;8.122;2023-02-01T04:03:20;10.10;;;4.27;;
9508;SDS011;4792;50.088;8.122;2023-02-01T04:05:49;7.40;;;4.20;;
9508;SDS011;4792;50.088;8.122;2023-02-01T04:08:19;9.97;;;5.10;;
9508;SDS011;4792;50.088;8.122;2023-02-01T04:10:47;8.43;;;4.50;;
9508;SDS011;4792;50.088;8.122;2023-02-01T04:13:15;10.00;;;5.77;;
9508;SDS011;4792;50.088;8.122;2023-02-01T04:15:43;30.90;;;6.33;;
9508;SDS011;4792;50.088;8.122;2023-02-01T04:18:11;55.97;;;7.67;;
9508;SDS011;4792;50.088;8.122;2023-02-01T04:20:40;14.63;;;5.60;;
9508;SDS011;4792;50.088;8.122;2023-02-01T04:23:09;51.87;;;7.63;;
9508;SDS011;4792;50.088;8.122;2023-02-01T04:25:38;8.63;;;6.00;;
9508;SDS011;4792;50.088;8.122;2023-02-01T04:28:06;11.70;;;7.10;;
9508;SDS011;4792;50.088;8.122;2023-02-01T04:30:35;10.90;;;5.93;;
9508;SDS011;4792;50.088;8.122;2023-02-01T04:33:03;10.77;;;6.43;;
9508;SDS011;4792;50.088;8.122;2023-02-01T04:35:32;12.77;;;6.23;;
9508;SDS011;4792;50.088;8.122;2023-02-01T04:38:00;9.97;;;6.40;;
9508;SDS011;4792;50.088;8.122;2023-02-01T04:40:28;13.90;;;5.80;;
9508;SDS011;4792;50.088;8.122;2023-02-01T04:42:58;8.97;;;6.00;;
9508;SDS011;4792;50.088;8.122;2023-02-01T04:45:27;13.90;;;6.60;;
9508;SDS011;4792;50.088;8.122;2023-02-01T04:47:55;10.47;;;5.37;;
9508;SDS011;4792;50.088;8.122;2023-02-01T04:50:23;14.07;;;5.77;;
9508;SDS011;4792;50.088;8.122;2023-02-01T04:52:51;14.60;;;6.23;;
9508;SDS011;4792;50.088;8.122;2023-02-01T04:55:19;16.93;;;6.03;;
9508;SDS011;4792;50.088;8.122;2023-02-01T04:57:47;21.23;;;5.27;;
9508;SDS011;4792;50.088;8.122;2023-02-01T05:00:17;15.73;;;5.50;;
9508;SDS011;4792;50.088;8.122;2023-02-01T05:02:46;13.33;;;5.40;;
9508;SDS011;4792;50.088;8.122;2023-02-01T05:05:14;18.60;;;5.93;;
9508;SDS011;4792;50.088;8.122;2023-02-01T05:07:42;18.67;;;5.77;;
9508;SDS011;4792;50.088;8.122;2023-02-01T05:10:10;22.70;;;5.93;;
9508;SDS011;4792;50.088;8.122;2023-02-01T05:12:38;13.80;;;5.67;;
9508;SDS011;4792;50.088;8.122;2023-02-01T05:15:25;13.57;;;5.00;;
9508;SDS011;4792;50.088;8.122;2023-02-01T05:17:53;20.83;;;5.70;;
9508;SDS011;4792;50.088;8.122;2023-02-01T05:20:21;14.13;;;4.70;;
9508;SDS011;4792;50.088;8.122;2023-02-01T05:22:50;21.20;;;5.33;;
9508;SDS011;4792;50.088;8.122;2023-02-01T05:25:18;18.57;;;5.10;;
9508;SDS011;4792;50.088;8.122;2023-02-01T05:27:46;18.00;;;4.70;;
9508;SDS011;4792;50.088;8.122;2023-02-01T05:30:15;19.43;;;5.80;;
9508;SDS011;4792;50.088;8.122;2023-02-01T05:32:44;18.33;;;4.97;;
9508;SDS011;4792;50.088;8.122;2023-02-01T05:35:12;12.30;;;4.67;;
9508;SDS011;4792;50.088;8.122;2023-02-01T05:37:41;19.33;;;5.80;;
9508;SDS011;4792;50.088;8.122;2023-02-01T05:40:09;17.93;;;5.40;;
9508;SDS011;4792;50.088;8.122;2023-02-01T05:42:38;16.57;;;5.50;;
9508;SDS011;4792;50.088;8.122;2023-02-01T05:45:07;21.83;;;5.27;;
9508;SDS011;4792;50.088;8.122;2023-02-01T05:47:35;16.20;;;5.63;;
9508;SDS011;4792;50.088;8.122;2023-02-01T05:50:06;19.30;;;5.60;;
9508;SDS011;4792;50.088;8.122;2023-02-01T05:52:34;17.07;;;5.40;;
9508;SDS011;4792;50.088;8.122;2023-02-01T05:55:02;20.63;;;5.37;;
9508;SDS011;4792;50.088;8.122;2023-02-01T05:57:40;20.70;;;5.97;;
9508;SDS011;4792;50.088;8.122;2023-02-01T06:00:08;15.13;;;5.53;;
9508;SDS011;4792;50.088;8.122;2023-02-01T06:02:37;24.90;;;6.90;;
9508;SDS011;4792;50.088;8.122;2023-02-01T06:05:07;17.17;;;5.27;;
9508;SDS011;4792;50.088;8.122;2023-02-01T06:07:35;17.63;;;5.47;;
9508;SDS011;4792;50.088;8.122;2023-02-01T06:10:04;22.20;;;5.50;;
9508;SDS011;4792;50.088;8.122;2023-02-01T06:12:32;21.17;;;5.80;;
9508;SDS011;4792;50.088;8.122;2023-02-01T06:15:00;18.70;;;5.20;;
9508;SDS011;4792;50.088;8.122;2023-02-01T06:17:29;15.67;;;4.73;;
9508;SDS011;4792;50.088;8.122;2023-02-01T06:19:57;12.13;;;5.10;;
9508;SDS011;4792;50.088;8.122;2023-02-01T06:22:26;15.63;;;5.13;;
9508;SDS011;4792;50.088;8.122;2023-02-01T06:24:54;17.53;;;5.10;;
9508;SDS011;4792;50.088;8.122;2023-02-01T06:27:22;17.80;;;4.87;;
9508;SDS011;4792;50.088;8.122;2023-02-01T06:29:50;20.63;;;5.57;;
9508;SDS011;4792;50.088;8.122;2023-02-01T06:32:18;19.37;;;6.30;;
9508;SDS011;4792;50.088;8.122;2023-02-01T06:34:46;15.20;;;5.03;;
9508;SDS011;4792;50.088;8.122;2023-02-01T06:37:14;17.77;;;5.23;;
9508;SDS011;4792;50.088;8.122;2023-02-01T06:39:44;19.03;;;4.47;;
9508;SDS011;4792;50.088;8.122;2023-02-01T06:42:13;16.20;;;4.47;;
9508;SDS011;4792;50.088;8.122;2023-02-01T06:44:41;15.20;;;4.77;;
9508;SDS011;4792;50.088;8.122;2023-02-01T06:47:09;17.20;;;4.80;;
9508;SDS011;4792;50.088;8.122;2023-02-01T06:49:37;14.20;;;4.50;;
9508;SDS011;4792;50.088;8.122;2023-02-01T06:52:06;18.33;;;5.13;;
9508;SDS011;4792;50.088;8.122;2023-02-01T06:54:34;15.90;;;4.30;;
9508;SDS011;4792;50.088;8.122;2023-02-01T06:57:05;12.47;;;4.30;;
9508;SDS011;4792;50.088;8.122;2023-02-01T06:59:33;16.87;;;4.17;;
9508;SDS011;4792;50.088;8.122;2023-02-01T07:02:01;17.63;;;4.80;;
9508;SDS011;4792;50.088;8.122;2023-02-01T07:04:29;18.70;;;4.30;;
9508;SDS011;4792;50.088;8.122;2023-02-01T07:06:57;16.73;;;3.53;;
9508;SDS011;4792;50.088;8.122;2023-02-01T07:09:25;17.13;;;3.90;;
9508;SDS011;4792;50.088;8.122;2023-02-01T07:11:53;10.23;;;4.00;;
9508;SDS011;4792;50.088;8.122;2023-02-01T07:14:23;14.27;;;4.13;;
9508;SDS011;4792;50.088;8.122;2023-02-01T07:16:51;13.97;;;3.90;;
9508;SDS011;4792;50.088;8.122;2023-02-01T07:19:19;13.40;;;3.80;;
9508;SDS011;4792;50.088;8.122;2023-02-01T07:21:47;16.00;;;3.83;;
9508;SDS011;4792;50.088;8.122;2023-02-01T07:24:15;11.93;;;3.33;;
9508;SDS011;4792;50.088;8.122;2023-02-01T07:26:43;16.53;;;3.97;;
9508;SDS011;4792;50.088;8.122;2023-02-01T07:29:11;18.90;;;4.07;;
9508;SDS011;4792;50.088;8.122;2023-02-01T07:31:40;16.77;;;3.40;;
9508;SDS011;4792;50.088;8.122;2023-02-01T07:34:08;12.70;;;3.77;;
9508;SDS011;4792;50.088;8.122;2023-02-01T07:36:36;16.00;;;3.60;;
9508;SDS011;4792;50.088;8.122;2023-02-01T07:39:04;15.47;;;4.20;;
9508;SDS011;4792;50.088;8.122;2023-02-01T07:41:33;17.60;;;3.83;;
9508;SDS011;4792;50.088;8.122;2023-02-01T07:44:01;14.60;;;3.70;;
9508;SDS011;4792;50.088;8.122;2023-02-01T07:46:29;20.57;;;4.63;;
9508;SDS011;4792;50.088;8.122;2023-02-01T07:48:58;18.03;;;4.27;;
9508;SDS011;4792;50.088;8.122;2023-02-01T07:51:26;17.37;;;3.83;;
9508;SDS011;4792;50.088;8.122;2023-02-01T07:53:54;12.23;;;3.70;;
9508;SDS011;4792;50.088;8.122;2023-02-01T07:56:23;16.63;;;4.43;;
9508;SDS011;4792;50.088;8.122;2023-02-01T07:58:54;10.83;;;3.27;;
9508;SDS011;4792;50.088;8.122;2023-02-01T08:01:24;15.87;;;3.20;;
9508;SDS011;4792;50.088;8.122;2023-02-01T08:03:53;18.60;;;3.60;;
9508;SDS011;4792;50.088;8.122;2023-02-01T08:06:24;15.07;;;3.80;;
9508;SDS011;4792;50.088;8.122;2023-02-01T08:08:52;16.47;;;4.17;;
9508;SDS011;4792;50.088;8.122;2023-02-01T08:11:21;14.43;;;4.27;;
9508;SDS011;4792;50.088;8.122;2023-02-01T08:13:51;15.30;;;3.70;;
9508;SDS011;4792;50.088;8.122;2023-02-01T08:16:20;16.17;;;3.80;;
9508;SDS011;4792;50.088;8.122;2023-02-01T08:18:49;12.70;;;4.20;;
9508;SDS011;4792;50.088;8.122;2023-02-01T08:21:18;9.97;;;3.63;;
9508;SDS011;4792;50.088;8.122;2023-02-01T08:23:49;13.80;;;3.43;;
9508;SDS011;4792;50.088;8.122;2023-02-01T08:26:18;12.53;;;3.73;;
9508;SDS011;4792;50.088;8.122;2023-02-01T08:28:49;13.87;;;3.47;;
9508;SDS011;4792;50.088;8.122;2023-02-01T08:31:19;15.03;;;5.37;;
9508;SDS011;4792;50.088;8.122;2023-02-01T08:33:49;14.53;;;4.33;;
9508;SDS011;4792;50.088;8.122;2023-02-01T08:36:20;11.37;;;3.87;;
9508;SDS011;4792;50.088;8.122;2023-02-01T08:38:49;17.37;;;4.93;;
9508;SDS011;4792;50.088;8.122;2023-02-01T08:41:18;10.40;;;3.37;;
9508;SDS011;4792;50.088;8.122;2023-02-01T08:43:48;19.93;;;7.93;;
9508;SDS011;4792;50.088;8.122;2023-02-01T08:46:16;14.73;;;4.70;;
9508;SDS011;4792;50.088;8.122;2023-02-01T08:48:45;8.67;;;3.33;;
9508;SDS011;4792;50.088;8.122;2023-02-01T08:51:15;16.57;;;4.77;;
9508;SDS011;4792;50.088;8.122;2023-02-01T08:53:44;20.10;;;7.90;;
9508;SDS011;4792;50.088;8.122;2023-02-01T08:56:15;45.37;;;15.70;;
9508;SDS011;4792;50.088;8.122;2023-02-01T08:58:44;28.57;;;8.80;;
9508;SDS011;4792;50.088;8.122;2023-02-01T09:01:13;11.67;;;3.50;;
9508;SDS011;4792;50.088;8.122;2023-02-01T09:03:43;15.13;;;3.80;;
9508;SDS011;4792;50.088;8.122;2023-02-01T09:06:12;14.30;;;5.10;;
9508;SDS011;4792;50.088;8.122;2023-02-01T09:08:42;12.57;;;3.70;;
9508;SDS011;4792;50.088;8.122;2023-02-01T09:11:11;12.23;;;3.33;;
9508;SDS011;4792;50.088;8.122;2023-02-01T09:13:41;13.60;;;4.23;;
9508;SDS011;4792;50.088;8.122;2023-02-01T09:16:10;13.27;;;3.33;;
9508;SDS011;4792;50.088;8.122;2023-02-01T09:18:38;14.10;;;3.90;;
9508;SDS011;4792;50.088;8.122;2023-02-01T09:21:21;10.07;;;2.90;;
9508;SDS011;4792;50.088;8.122;2023-02-01T09:23:50;9.07;;;3.57;;
9508;SDS011;4792;50.088;8.122;2023-02-01T09:26:18;11.33;;;3.93;;
9508;SDS011;4792;50.088;8.122;2023-02-01T09:28:57;13.50;;;3.60;;
9508;SDS011;4792;50.088;8.122;2023-02-01T09:31:25;12.40;;;3.93;;
9508;SDS011;4792;50.088;8.122;2023-02-01T09:33:53;14.40;;;3.00;;
9508;SDS011;4792;50.088;8.122;2023-02-01T09:36:21;11.43;;;3.00;;
9508;SDS011;4792;50.088;8.122;2023-02-01T09:38:50;10.67;;;3.10;;
9508;SDS011;4792;50.088;8.122;2023-02-01T09:41:25;16.30;;;3.27;;
9508;SDS011;4792;50.088;8.122;2023-02-01T09:44:02;15.17;;;3.73;;
9508;SDS011;4792;50.088;8.122;2023-02-01T09:46:40;16.83;;;4.03;;
9508;SDS011;4792;50.088;8.122;2023-02-01T09:49:10;10.53;;;3.33;;
9508;SDS011;4792;50.088;8.122;2023-02-01T09:51:42;15.20;;;4.10;;
9508;SDS011;4792;50.088;8.122;2023-02-01T09:54:13;15.20;;;3.60;;
9508;SDS011;4792;50.088;8.122;2023-02-01T09:56:46;16.17;;;3.77;;
9508;SDS011;4792;50.088;8.122;2023-02-01T09:59:23;16.83;;;3.80;;
9508;SDS011;4792;50.088;8.122;2023-02-01T10:01:59;13.67;;;3.43;;
9508;SDS011;4792;50.088;8.122;2023-02-01T10:04:29;17.20;;;3.93;;
9508;SDS011;4792;50.088;8.122;2023-02-01T10:07:05;17.23;;;3.27;;
9508;SDS011;4792;50.088;8.122;2023-02-01T10:09:47;9.27;;;3.13;;
9508;SDS011;4792;50.088;8.122;2023-02-01T10:12:34;6.07;;;2.83;;
9508;SDS011;4792;50.088;8.122;2023-02-01T10:15:22;10.00;;;3.00;;
9508;SDS011;4792;50.088;8.122;2023-02-01T10:18:01;12.50;;;3.60;;
9508;SDS011;4792;50.088;8.122;2023-02-01T10:20:44;15.67;;;4.07;;
9508;SDS011;4792;50.088;8.122;2023-02-01T10:23:25;12.90;;;3.43;;
9508;SDS011;4792;50.088;8.122;2023-02-01T10:26:08;15.63;;;3.63;;
9508;SDS011;4792;50.088;8.122;2023-02-01T10:28:45;12.97;;;3.67;;
9508;SDS011;4792;50.088;8.122;2023-02-01T10:31:18;8.60;;;3.40;;
9508;SDS011;4792;50.088;8.122;2023-02-01T10:33:52;14.00;;;3.70;;
9508;SDS011;4792;50.088;8.122;2023-02-01T10:36:25;10.37;;;3.37;;
9508;SDS011;4792;50.088;8.122;2023-02-01T10:38:58;10.60;;;3.33;;
9508;SDS011;4792;50.088;8.122;2023-02-01T10:41:29;11.13;;;3.30;;
9508;SDS011;4792;50.088;8.122;2023-02-01T10:44:00;11.70;;;4.07;;
9508;SDS011;4792;50.088;8.122;2023-02-01T10:46:33;16.67;;;3.93;;
9508;SDS011;4792;50.088;8.122;2023-02-01T10:49:02;11.93;;;3.43;;
9508;SDS011;4792;50.088;8.122;2023-02-01T10:51:36;18.17;;;4.13;;
9508;SDS011;4792;50.088;8.122;2023-02-01T10:54:10;10.70;;;3.50;;
9508;SDS011;4792;50.088;8.122;2023-02-01T10:56:43;10.30;;;3.20;;
9508;SDS011;4792;50.088;8.122;2023-02-01T10:59:14;9.77;;;3.97;;
9508;SDS011;4792;50.088;8.122;2023-02-01T11:01:47;16.27;;;3.70;;
9508;SDS011;4792;50.088;8.122;2023-02-01T11:04:16;13.57;;;3.47;;
9508;SDS011;4792;50.088;8.122;2023-02-01T11:06:46;17.33;;;3.47;;
9508;SDS011;4792;50.088;8.122;2023-02-01T11:09:17;17.17;;;4.00;;
9508;SDS011;4792;50.088;8.122;2023-02-01T11:11:55;15.67;;;3.83;;
9508;SDS011;4792;50.088;8.122;2023-02-01T11:14:30;11.33;;;3.33;;
9508;SDS011;4792;50.088;8.122;2023-02-01T11:17:12;14.77;;;4.07;;
9508;SDS011;4792;50.088;8.122;2023-02-01T11:19:55;9.90;;;2.83;;
9508;SDS011;4792;50.088;8.122;2023-02-01T11:22:25;16.93;;;3.60;;
9508;SDS011;4792;50.088;8.122;2023-02-01T11:24:56;10.93;;;3.70;;
9508;SDS011;4792;50.088;8.122;2023-02-01T11:27:25;12.50;;;3.30;;
9508;SDS011;4792;50.088;8.122;2023-02-01T11:29:55;13.50;;;3.93;;
9508;SDS011;4792;50.088;8.122;2023-02-01T11:32:29;17.33;;;3.87;;
9508;SDS011;4792;50.088;8.122;2023-02-01T11:34:59;9.83;;;3.93;;
9508;SDS011;4792;50.088;8.122;2023-02-01T11:37:32;16.23;;;5.10;;
9508;SDS011;4792;50.088;8.122;2023-02-01T11:40:09;23.33;;;8.13;;
9508;SDS011;4792;50.088;8.122;2023-02-01T11:42:53;21.00;;;7.20;;
9508;SDS011;4792;50.088;8.122;2023-02-01T11:45:24;15.60;;;6.57;;
9508;SDS011;4792;50.088;8.122;2023-02-01T11:47:56;15.90;;;3.97;;
9508;SDS011;4792;50.088;8.122;2023-02-01T11:50:28;15.40;;;4.27;;
9508;SDS011;4792;50.088;8.122;2023-02-01T11:56:05;15.17;;;4.80;;
9508;SDS011;4792;50.088;8.122;2023-02-01T11:58:49;11.03;;;3.70;;
9508;SDS011;4792;50.088;8.122;2023-02-01T12:01:44;14.37;;;3.80;;
9508;SDS011;4792;50.088;8.122;2023-02-01T12:07:38;19.73;;;5.80;;
9508;SDS011;4792;50.088;8.122;2023-02-01T12:10:23;15.07;;;4.13;;
9508;SDS011;4792;50.088;8.122;2023-02-01T12:13:01;9.57;;;3.00;;
9508;SDS011;4792;50.088;8.122;2023-02-01T12:15:40;13.17;;;4.13;;
9508;SDS011;4792;50.088;8.122;2023-02-01T12:21:24;15.13;;;3.60;;
9508;SDS011;4792;50.088;8.122;2023-02-01T12:24:15;16.90;;;3.83;;
9508;SDS011;4792;50.088;8.122;2023-02-01T12:26:58;11.37;;;3.43;;
9508;SDS011;4792;50.088;8.122;2023-02-01T12:32:42;9.23;;;3.40;;
9508;SDS011;4792;50.088;8.122;2023-02-01T12:35:27;14.37;;;3.17;;
9508;SDS011;4792;50.088;8.122;2023-02-01T12:38:11;16.37;;;3.87;;
9508;SDS011;4792;50.088;8.122;2023-02-01T12:40:53;15.47;;;3.37;;
9508;SDS011;4792;50.088;8.122;2023-02-01T12:43:36;16.40;;;3.93;;
9508;SDS011;4792;50.088;8.122;2023-02-01T12:46:07;13.47;;;3.43;;
9508;SDS011;4792;50.088;8.122;2023-02-01T12:48:40;9.63;;;3.40;;
9508;SDS011;4792;50.088;8.122;2023-02-01T12:51:16;12.20;;;3.40;;
9508;SDS011;4792;50.088;8.122;2023-02-01T12:53:48;8.43;;;3.13;;
9508;SDS011;4792;50.088;8.122;2023-02-01T12:56:23;8.23;;;3.00;;
9508;SDS011;4792;50.088;8.122;2023-02-01T12:58:54;15.67;;;3.90;;
9508;SDS011;4792;50.088;8.122;2023-02-01T13:01:28;13.57;;;3.23;;
9508;SDS011;4792;50.088;8.122;2023-02-01T13:04:02;15.63;;;3.93;;
9508;SDS011;4792;50.088;8.122;2023-02-01T13:06:37;19.27;;;4.70;;
9508;SDS011;4792;50.088;8.122;2023-02-01T13:09:11;14.10;;;3.10;;
9508;SDS011;4792;50.088;8.122;2023-02-01T13:11:48;10.57;;;3.37;;
9508;SDS011;4792;50.088;8.122;2023-02-01T13:14:23;12.60;;;3.23;;
9508;SDS011;4792;50.088;8.122;2023-02-01T13:16:58;10.80;;;4.23;;
9508;SDS011;4792;50.088;8.122;2023-02-01T13:19:40;13.37;;;2.83;;
9508;SDS011;4792;50.088;8.122;2023-02-01T13:22:13;9.43;;;2.90;;
9508;SDS011;4792;50.088;8.122;2023-02-01T13:24:47;11.97;;;3.63;;
9508;SDS011;4792;50.088;8.122;2023-02-01T13:27:19;13.00;;;2.87;;
9508;SDS011;4792;50.088;8.122;2023-02-01T13:29:50;6.20;;;2.30;;
9508;SDS011;4792;50.088;8.122;2023-02-01T13:32:28;12.97;;;3.20;;
9508;SDS011;4792;50.088;8.122;2023-02-01T13:35:32;14.93;;;3.17;;
9508;SDS011;4792;50.088;8.122;2023-02-01T13:41:05;16.10;;;3.67;;
9508;SDS011;4792;50.088;8.122;2023-02-01T13:43:44;9.70;;;2.73;;
9508;SDS011;4792;50.088;8.122;2023-02-01T13:46:16;12.00;;;2.97;;
9508;SDS011;4792;50.088;8.122;2023-02-01T13:48:46;11.90;;;3.00;;
9508;SDS011;4792;50.088;8.122;2023-02-01T13:51:17;9.87;;;3.20;;
9508;SDS011;4792;50.088;8.122;2023-02-01T13:54:04;12.27;;;2.90;;
9508;SDS011;4792;50.088;8.122;2023-02-01T13:56:39;12.47;;;2.90;;
9508;SDS011;4792;50.088;8.122;2023-02-01T14:06:03;11.73;;;2.87;;
9508;SDS011;4792;50.088;8.122;2023-02-01T14:08:44;14.97;;;3.50;;
9508;SDS011;4792;50.088;8.122;2023-02-01T14:11:37;12.60;;;3.13;;
9508;SDS011;4792;50.088;8.122;2023-02-01T14:23:23;7.90;;;2.87;;
9508;SDS011;4792;50.088;8.122;2023-02-01T14:26:04;10.97;;;2.63;;
9508;SDS011;4792;50.088;8.122;2023-02-01T14:28:43;9.10;;;3.20;;
9508;SDS011;4792;50.088;8.122;2023-02-01T14:31:25;14.27;;;3.07;;
9508;SDS011;4792;50.088;8.122;2023-02-01T14:34:02;10.27;;;2.63;;
9508;SDS011;4792;50.088;8.122;2023-02-01T14:36:42;7.93;;;2.20;;
9508;SDS011;4792;50.088;8.122;2023-02-01T14:39:24;12.47;;;2.77;;
9508;SDS011;4792;50.088;8.122;2023-02-01T14:42:00;9.73;;;2.77;;
9508;SDS011;4792;50.088;8.122;2023-02-01T14:44:35;9.27;;;2.60;;
9508;SDS011;4792;50.088;8.122;2023-02-01T14:50:00;14.83;;;2.80;;
9508;SDS011;4792;50.088;8.122;2023-02-01T14:52:58;13.13;;;3.23;;
9508;SDS011;4792;50.088;8.122;2023-02-01T14:55:35;12.70;;;2.60;;
9508;SDS011;4792;50.088;8.122;2023-02-01T14:58:15;13.43;;;3.10;;
9508;SDS011;4792;50.088;8.122;2023-02-01T15:00:47;10.87;;;2.43;;
9508;SDS011;4792;50.088;8.122;2023-02-01T15:03:23;13.83;;;3.00;;
9508;SDS011;4792;50.088;8.122;2023-02-01T15:06:16;14.73;;;2.77;;
9508;SDS011;4792;50.088;8.122;2023-02-01T15:08:52;9.13;;;2.43;;
9508;SDS011;4792;50.088;8.122;2023-02-01T15:11:24;20.97;;;3.53;;
9508;SDS011;4792;50.088;8.122;2023-02-01T15:13:52;10.97;;;2.63;;
9508;SDS011;4792;50.088;8.122;2023-02-01T15:16:23;9.60;;;2.67;;
9508;SDS011;4792;50.088;8.122;2023-02-01T15:19:08;12.27;;;2.53;;
9508;SDS011;4792;50.088;8.122;2023-02-01T15:21:44;10.87;;;2.57;;
9508;SDS011;4792;50.088;8.122;2023-02-01T15:24:14;10.93;;;2.93;;
9508;SDS011;4792;50.088;8.122;2023-02-01T15:26:48;9.10;;;2.53;;
9508;SDS011;4792;50.088;8.122;2023-02-01T15:29:16;9.13;;;2.53;;
9508;SDS011;4792;50.088;8.122;2023-02-01T15:31:46;13.73;;;2.80;;
9508;SDS011;4792;50.088;8.122;2023-02-01T15:34:16;9.93;;;2.57;;
9508;SDS011;4792;50.088;8.122;2023-02-01T15:36:45;8.80;;;2.30;;
9508;SDS011;4792;50.088;8.122;2023-02-01T15:39:28;15.10;;;2.60;;
9508;SDS011;4792;50.088;8.122;2023-02-01T15:42:00;10.30;;;2.57;;
9508;SDS011;4792;50.088;8.122;2023-02-01T15:44:38;16.77;;;2.57;;
9508;SDS011;4792;50.088;8.122;2023-02-01T15:47:12;6.63;;;2.00;;
9508;SDS011;4792;50.088;8.122;2023-02-01T15:49:43;10.00;;;2.50;;
9508;SDS011;4792;50.088;8.122;2023-02-01T15:52:18;13.43;;;2.77;;
9508;SDS011;4792;50.088;8.122;2023-02-01T15:54:52;9.03;;;2.30;;
9508;SDS011;4792;50.088;8.122;2023-02-01T15:57:24;12.80;;;2.60;;
9508;SDS011;4792;50.088;8.122;2023-02-01T15:59:58;8.77;;;2.57;;
9508;SDS011;4792;50.088;8.122;2023-02-01T16:02:29;9.00;;;2.47;;
9508;SDS011;4792;50.088;8.122;2023-02-01T16:05:02;8.20;;;2.33;;
9508;SDS011;4792;50.088;8.122;2023-02-01T16:07:32;9.53;;;2.37;;
9508;SDS011;4792;50.088;8.122;2023-02-01T16:10:02;7.50;;;2.07;;
9508;SDS011;4792;50.088;8.122;2023-02-01T16:12:56;10.00;;;3.00;;
9508;SDS011;4792;50.088;8.122;2023-02-01T16:15:26;15.23;;;3.13;;
9508;SDS011;4792;50.088;8.122;2023-02-01T16:17:55;11.23;;;2.30;;